Time;durP1;ratioP1;P1;durP2;ratioP2;P2;SDS_P1;SDS_P2;PMS_P1;PMS_P2;Temp;Humidity;BMP_temperature;BMP_pressure;BME280_temperature;BME280_humidity;BME280_pressure;Samples;Min_cycle;Max_cycle;Signal;HPM_P1;HPM_P2
2022/08/28 00:01:09;;;;;;;33.63;17.58;;;;;;;20.26;73.74;99040.31;5223387;28;20080;-74
2022/08/28 00:04:00;;;;;;;28.15;16.02;;;;;;;20.29;73.26;99038.03;5223322;28;20184;-74
2022/08/28 00:06:50;;;;;;;25.50;16.48;;;;;;;20.21;72.86;99026.66;5222745;28;20056;-74
2022/08/28 00:09:40;;;;;;;29.13;16.20;;;;;;;20.23;73.91;99032.66;5223667;28;20064;-73
2022/08/28 00:12:30;;;;;;;32.17;19.05;;;;;;;20.15;75.69;99022.91;5222106;28;20049;-74
2022/08/28 00:15:26;;;;;;;34.50;19.42;;;;;;;20.33;75.02;99033.94;5223064;28;20447;-74
2022/08/28 00:18:17;;;;;;;33.13;19.13;;;;;;;20.45;73.90;99028.75;5220835;28;20056;-74
2022/08/28 00:21:07;;;;;;;31.52;19.80;;;;;;;20.56;73.88;99038.94;5205560;28;20088;-74
2022/08/28 00:23:58;;;;;;;42.60;20.55;;;;;;;20.65;73.69;99034.16;5223130;28;20072;-73
2022/08/28 00:29:58;;;;;;;34.58;19.95;;;;;;;20.58;73.22;99033.34;5204923;28;20049;-73
2022/08/28 00:32:48;;;;;;;34.28;19.00;;;;;;;20.57;72.71;99037.91;5219626;28;20041;-73
2022/08/28 00:35:41;;;;;;;35.22;19.45;;;;;;;20.59;73.27;99037.69;5222901;28;20071;-74
2022/08/28 00:38:31;;;;;;;34.53;20.15;;;;;;;20.61;74.29;99031.06;5223206;28;20055;-74
2022/08/28 00:41:21;;;;;;;31.90;18.60;;;;;;;20.61;73.93;99044.53;5221104;28;20068;-74
2022/08/28 00:44:20;;;;;;;30.90;20.10;;;;;;;20.64;73.74;99030.66;5222171;28;20132;-73
2022/08/28 00:47:11;;;;;;;29.88;18.60;;;;;;;20.65;73.16;99034.97;5221545;28;20114;-73
2022/08/28 00:50:03;;;;;;;30.30;19.15;;;;;;;20.65;73.76;99029.59;5223026;28;20049;-74
2022/08/28 00:52:58;;;;;;;28.17;19.17;;;;;;;20.72;73.13;99029.59;5221863;28;20049;-74
2022/08/28 00:55:49;;;;;;;29.95;19.83;;;;;;;20.58;74.67;99026.09;5219298;28;20064;-73
2022/08/28 00:58:42;;;;;;;28.02;19.85;;;;;;;20.68;73.24;99019.44;5222154;28;20049;-74
2022/08/28 01:01:32;;;;;;;30.65;18.27;;;;;;;20.64;72.66;99022.56;5222138;28;20095;-74
2022/08/28 01:04:25;;;;;;;27.38;18.20;;;;;;;20.60;72.84;99021.31;5222257;28;20049;-74
2022/08/28 01:07:16;;;;;;;33.88;19.45;;;;;;;20.59;72.65;99019.66;5221520;28;20056;-74
2022/08/28 01:10:08;;;;;;;33.92;18.60;;;;;;;20.55;72.04;99021.09;5210656;28;20060;-74
2022/08/28 01:12:59;;;;;;;24.42;17.60;;;;;;;20.50;71.87;99020.06;5219397;28;20052;-73
2022/08/28 01:15:50;;;;;;;26.98;17.30;;;;;;;20.49;72.21;99026.47;5222598;28;20041;-74
2022/08/28 01:18:42;;;;;;;29.83;18.17;;;;;;;20.46;73.19;99033.09;5219988;28;20518;-74
2022/08/28 01:21:52;;;;;;;28.95;19.17;;;;;;;20.44;72.77;99032.47;5221467;28;20163;-74
2022/08/28 01:24:44;;;;;;;30.25;18.70;;;;;;;20.46;72.46;99029.56;5220862;28;20096;-74
2022/08/28 01:27:34;;;;;;;31.73;18.52;;;;;;;20.51;72.81;99021.75;5221826;28;20059;-74
2022/08/28 01:30:25;;;;;;;28.73;18.40;;;;;;;20.55;72.94;99021.09;5222017;28;20061;-74
2022/08/28 01:33:15;;;;;;;32.90;20.40;;;;;;;20.60;72.66;99020.50;5220650;28;20178;-74
2022/08/28 01:36:06;;;;;;;33.50;19.75;;;;;;;20.63;73.11;99023.59;5222184;28;20100;-74
2022/08/28 01:39:23;;;;;;;33.65;19.85;;;;;;;20.75;72.67;99034.56;5218192;28;20045;-73
2022/08/28 01:42:13;;;;;;;38.10;20.95;;;;;;;20.76;73.04;99027.31;5220048;28;20052;-74
2022/08/28 01:45:04;;;;;;;36.78;21.30;;;;;;;20.75;73.06;99022.97;5210986;28;20060;-74
2022/08/28 01:47:54;;;;;;;33.20;20.88;;;;;;;20.69;72.86;99021.09;5207604;28;20155;-73
2022/08/28 01:50:44;;;;;;;33.03;20.90;;;;;;;20.63;73.27;99018.22;5218606;28;20055;-73
2022/08/28 01:53:35;;;;;;;40.40;23.15;;;;;;;20.71;72.93;99027.94;5220732;28;20133;-74
2022/08/28 01:56:25;;;;;;;43.00;22.83;;;;;;;20.74;73.22;99027.53;5219785;28;20084;-74
2022/08/28 01:59:15;;;;;;;36.92;23.17;;;;;;;20.70;73.24;99029.00;5220885;28;20053;-74
2022/08/28 02:02:05;;;;;;;34.45;21.65;;;;;;;20.68;72.71;99025.66;5219177;28;20072;-74
2022/08/28 02:04:57;;;;;;;40.95;22.40;;;;;;;20.67;72.87;99024.00;5219668;28;20072;-74
2022/08/28 02:07:47;;;;;;;39.00;22.80;;;;;;;20.67;73.59;99031.28;5216700;28;20060;-74
2022/08/28 02:10:39;;;;;;;41.08;22.02;;;;;;;20.60;73.52;99029.41;5221541;28;20091;-74
2022/08/28 02:13:29;;;;;;;40.47;23.23;;;;;;;20.67;72.96;99033.97;5205239;28;20103;-73
2022/08/28 02:16:19;;;;;;;42.13;23.75;;;;;;;20.74;73.46;99037.50;5221569;28;20037;-74
2022/08/28 02:19:10;;;;;;;42.45;24.15;;;;;;;20.71;73.52;99027.94;5220981;28;20057;-73
2022/08/28 02:22:02;;;;;;;39.75;24.10;;;;;;;20.76;73.61;99035.38;5221282;28;20060;-73
2022/08/28 02:24:53;;;;;;;51.28;25.80;;;;;;;20.88;73.48;99036.44;5220442;28;20045;-72
2022/08/28 02:27:44;;;;;;;46.17;25.88;;;;;;;20.74;73.53;99030.22;5217504;28;20079;-73
2022/08/28 02:30:35;;;;;;;47.47;26.60;;;;;;;20.84;73.30;99043.28;5221362;28;20577;-73
2022/08/28 02:33:26;;;;;;;43.72;25.17;;;;;;;20.72;74.40;99039.53;5219796;28;20124;-72
2022/08/28 02:36:16;;;;;;;51.88;27.15;;;;;;;20.75;73.70;99037.25;5220495;28;20060;-73
2022/08/28 02:39:07;;;;;;;54.75;28.50;;;;;;;20.87;74.15;99040.16;5219626;28;20049;-73
2022/08/28 02:41:57;;;;;;;53.80;26.95;;;;;;;20.78;73.49;99036.84;5221629;28;20654;-73
2022/08/28 02:44:48;;;;;;;52.05;28.27;;;;;;;20.95;73.05;99036.41;5224356;28;20064;-72
2022/08/28 02:47:39;;;;;;;49.00;27.02;;;;;;;20.77;73.22;99037.06;5214125;28;20072;-72
2022/08/28 02:50:30;;;;;;;48.60;26.73;;;;;;;20.84;73.28;99040.59;5223485;28;20052;-72
2022/08/28 02:53:21;;;;;;;52.47;27.90;;;;;;;20.83;72.95;99047.03;5209807;28;20055;-73
2022/08/28 02:56:11;;;;;;;49.85;26.42;;;;;;;20.82;72.92;99037.25;5223038;28;20076;-72
2022/08/28 02:59:01;;;;;;;53.33;27.17;;;;;;;20.93;73.17;99046.59;5221750;28;20441;-73
2022/08/28 03:01:52;;;;;;;50.70;26.73;;;;;;;20.79;73.33;99029.59;5225017;28;20052;-73
2022/08/28 03:04:43;;;;;;;49.42;27.15;;;;;;;20.88;73.14;99034.56;5223597;28;20484;-73
2022/08/28 03:07:33;;;;;;;46.40;27.55;;;;;;;20.84;73.53;99033.31;5224066;28;20875;-73
2022/08/28 03:10:24;;;;;;;45.58;25.92;;;;;;;20.64;73.31;99014.47;5224030;28;20060;-73
2022/08/28 03:13:16;;;;;;;42.42;24.38;;;;;;;20.89;73.19;99038.06;5222631;28;20045;-73
2022/08/28 03:16:16;;;;;;;48.10;26.05;;;;;;;20.80;72.59;99026.69;5222812;28;20063;-73
2022/08/28 03:19:07;;;;;;;42.70;24.98;;;;;;;20.93;72.68;99033.13;5209273;28;20079;-73
2022/08/28 03:21:57;;;;;;;50.03;25.77;;;;;;;20.86;72.85;99031.25;5223468;28;20095;-73
2022/08/28 03:24:47;;;;;;;52.05;27.17;;;;;;;20.79;73.42;99016.94;5223849;28;20060;-73
2022/08/28 03:27:37;;;;;;;56.03;26.02;;;;;;;20.90;72.92;99028.97;5224279;28;20048;-73
2022/08/28 03:30:28;;;;;;;47.08;25.15;;;;;;;20.87;72.82;99032.91;5224468;28;20142;-72
2022/08/28 03:33:18;;;;;;;40.28;23.77;;;;;;;20.77;72.62;99032.50;5224180;28;20195;-73
2022/08/28 03:36:10;;;;;;;38.85;23.60;;;;;;;20.79;72.36;99035.81;5222389;28;20124;-72
2022/08/28 03:39:04;;;;;;;40.72;22.65;;;;;;;20.74;72.46;99037.50;5221510;28;20044;-73
2022/08/28 03:41:54;;;;;;;38.20;22.67;;;;;;;20.77;71.79;99040.59;5223795;28;20630;-73
2022/08/28 03:44:44;;;;;;;43.42;24.02;;;;;;;20.78;71.85;99044.09;5222863;28;20085;-72
2022/08/28 03:47:40;;;;;;;41.10;23.08;;;;;;;20.67;72.91;99042.06;5223522;28;20041;-72
2022/08/28 03:50:33;;;;;;;38.30;22.70;;;;;;;20.73;72.53;99035.81;5222989;28;20075;-72
2022/08/28 03:53:25;;;;;;;41.63;23.42;;;;;;;20.76;72.58;99047.03;5221687;28;20049;-73
2022/08/28 03:56:21;;;;;;;39.88;23.65;;;;;;;20.76;72.48;99038.09;5221311;28;20179;-73
2022/08/28 03:59:11;;;;;;;41.15;23.70;;;;;;;20.82;72.10;99045.34;5222220;28;20053;-73
2022/08/28 04:02:01;;;;;;;42.88;24.58;;;;;;;20.86;71.93;99046.56;5220460;28;20049;-73
2022/08/28 04:04:51;;;;;;;43.60;23.90;;;;;;;20.89;72.43;99040.78;5223454;28;20444;-72
2022/08/28 04:07:42;;;;;;;41.40;24.08;;;;;;;20.87;72.01;99049.06;5217659;28;20450;-72
2022/08/28 04:10:32;;;;;;;43.42;24.77;;;;;;;20.79;72.60;99051.97;5223220;28;20071;-72
2022/08/28 04:13:22;;;;;;;44.08;24.75;;;;;;;20.83;72.40;99052.41;5221311;28;20049;-72
2022/08/28 04:16:15;;;;;;;42.78;23.73;;;;;;;20.76;72.13;99046.16;5223458;28;20269;-74
2022/08/28 04:19:05;;;;;;;40.33;23.10;;;;;;;20.72;72.41;99039.53;5223067;28;20052;-73
2022/08/28 04:21:55;;;;;;;39.80;22.77;;;;;;;20.73;72.61;99047.44;5219436;28;20295;-73
2022/08/28 04:24:46;;;;;;;38.80;22.45;;;;;;;20.67;72.22;99042.88;5222844;28;20342;-73
2022/08/28 04:27:36;;;;;;;40.08;23.52;;;;;;;20.68;72.53;99049.91;5223073;28;20142;-73
2022/08/28 04:30:26;;;;;;;38.17;22.08;;;;;;;20.82;72.62;99059.63;5223316;28;20059;-72
2022/08/28 04:33:17;;;;;;;38.95;22.45;;;;;;;20.73;72.44;99057.38;5222098;28;20551;-72
2022/08/28 04:36:15;;;;;;;34.08;21.00;;;;;;;20.71;72.18;99059.44;5221378;28;20053;-72
2022/08/28 04:39:07;;;;;;;42.20;22.95;;;;;;;20.77;72.55;99064.84;5220445;28;20075;-73
2022/08/28 04:41:58;;;;;;;34.13;20.35;;;;;;;20.70;72.29;99058.63;5222736;28;20064;-72
2022/08/28 04:44:48;;;;;;;43.55;21.73;;;;;;;20.67;72.36;99055.53;5223242;28;20533;-73
2022/08/28 04:47:39;;;;;;;34.42;21.20;;;;;;;20.74;72.32;99061.75;5246102;22;20055;-80
2022/08/28 04:50:29;;;;;;;34.17;21.83;;;;;;;20.60;72.37;99042.06;5273124;28;20170;-80
2022/08/28 04:53:20;;;;;;;39.38;22.05;;;;;;;20.70;72.13;99057.81;5259979;28;20090;-80
2022/08/28 04:56:11;;;;;;;40.78;21.50;;;;;;;20.64;72.00;99043.28;5242513;28;20060;-80
2022/08/28 04:59:03;;;;;;;37.10;20.45;;;;;;;20.76;72.51;99067.72;5243976;28;20110;-79
2022/08/28 05:01:53;;;;;;;36.08;21.63;;;;;;;20.56;72.88;99062.34;5243249;28;20055;-79
2022/08/28 05:04:44;;;;;;;34.78;21.77;;;;;;;20.59;72.62;99051.16;5244009;28;20114;-80
2022/08/28 05:07:34;;;;;;;36.00;21.33;;;;;;;20.64;72.87;99060.28;5245546;28;20044;-81
2022/08/28 05:10:25;;;;;;;37.08;22.80;;;;;;;20.63;73.16;99066.72;5245389;28;20115;-79
2022/08/28 05:13:15;;;;;;;38.22;21.70;;;;;;;20.67;72.81;99067.13;5246092;28;20135;-80
2022/08/28 05:16:06;;;;;;;35.38;22.48;;;;;;;20.41;73.68;99060.66;5229081;28;20706;-80
2022/08/28 05:19:00;;;;;;;42.30;22.33;;;;;;;20.60;73.38;99075.22;5228523;28;20056;-81
2022/08/28 05:21:51;;;;;;;38.60;21.95;;;;;;;20.69;73.13;99083.06;5257031;28;20080;-79
2022/08/28 05:24:42;;;;;;;41.33;22.23;;;;;;;20.73;72.61;99074.38;5248840;28;20086;-79
2022/08/28 05:27:32;;;;;;;38.33;21.50;;;;;;;20.59;72.27;99057.38;5244904;28;20051;-80
2022/08/28 05:30:22;;;;;;;34.13;21.25;;;;;;;20.70;72.70;99055.94;5245710;28;20094;-82
2022/08/28 05:33:14;;;;;;;35.95;20.45;;;;;;;20.77;72.00;99083.69;5258495;28;20063;-80
2022/08/28 05:36:06;;;;;;;37.15;21.52;;;;;;;20.85;72.11;99077.25;5240320;28;20051;-80
2022/08/28 05:38:57;;;;;;;34.25;21.40;;;;;;;20.80;72.22;99071.69;5241874;28;20107;-79
2022/08/28 05:41:47;;;;;;;36.75;21.55;;;;;;;20.82;72.36;99093.84;5241633;28;20048;-80
2022/08/28 05:44:37;;;;;;;34.00;20.80;;;;;;;20.82;72.22;99074.97;5243413;28;20056;-79
2022/08/28 05:47:31;;;;;;;35.03;20.42;;;;;;;20.83;72.65;99077.50;5244464;28;20080;-80
2022/08/28 05:50:21;;;;;;;37.65;20.80;;;;;;;20.73;72.95;99085.16;5259409;28;20094;-80
2022/08/28 05:53:11;;;;;;;34.80;20.88;;;;;;;20.61;72.56;99073.34;5231998;28;20053;-80
2022/08/28 05:56:03;;;;;;;36.15;20.90;;;;;;;20.71;72.01;99081.84;5243317;28;20052;-80
2022/08/28 05:58:55;;;;;;;32.78;20.67;;;;;;;20.67;72.94;99085.97;5245402;28;20041;-80
2022/08/28 06:01:48;;;;;;;34.55;20.55;;;;;;;20.76;72.13;99084.75;5246576;28;20056;-80
2022/08/28 06:04:39;;;;;;;34.60;21.00;;;;;;;20.92;72.17;99080.78;5244683;28;20060;-80
2022/08/28 06:07:29;;;;;;;35.63;20.13;;;;;;;20.65;72.98;99061.94;5243380;28;20044;-80
2022/08/28 06:10:19;;;;;;;36.10;20.92;;;;;;;20.84;71.65;99091.78;5259068;28;20126;-80
2022/08/28 06:13:10;;;;;;;39.88;20.90;;;;;;;21.04;71.86;99091.78;5259079;28;20049;-80
2022/08/28 06:16:01;;;;;;;37.75;21.00;;;;;;;21.27;71.02;99088.63;5246294;28;20056;-79
2022/08/28 06:18:51;;;;;;;34.70;19.98;;;;;;;21.31;71.14;99093.38;5262630;28;20178;-80
2022/08/28 06:21:42;;;;;;;27.88;19.05;;;;;;;21.24;70.63;99083.66;5246634;28;20120;-79
2022/08/28 06:24:33;;;;;;;31.00;19.05;;;;;;;21.15;71.13;99103.78;5247867;28;20103;-79
2022/08/28 06:27:24;;;;;;;34.10;18.45;;;;;;;21.43;70.68;99090.09;5247233;28;20517;-80
2022/08/28 06:30:14;;;;;;;29.63;18.98;;;;;;;21.09;71.91;99090.13;5247980;28;20056;-79
2022/08/28 06:33:05;;;;;;;33.67;18.40;;;;;;;21.77;69.42;99105.13;5244626;28;20059;-80
2022/08/28 06:35:56;;;;;;;27.85;17.75;;;;;;;21.74;68.82;99119.03;5244396;28;20124;-80
2022/08/28 06:38:46;;;;;;;28.75;17.70;;;;;;;21.64;69.47;99097.06;5255890;28;20120;-80
2022/08/28 06:41:41;;;;;;;28.85;17.67;;;;;;;21.61;70.00;99105.59;5248233;28;20048;-80
2022/08/28 06:44:31;;;;;;;27.25;17.95;;;;;;;21.53;69.48;99106.66;5246242;28;20048;-79
2022/08/28 06:47:22;;;;;;;26.08;16.80;;;;;;;21.63;69.18;99114.31;5246626;28;20041;-80
2022/08/28 06:50:12;;;;;;;28.02;16.85;;;;;;;21.70;69.42;99129.44;5246387;28;20201;-79
2022/08/28 06:53:03;;;;;;;25.05;16.38;;;;;;;21.52;69.90;99127.41;5246654;28;20510;-81
2022/08/28 06:56:07;;;;;;;32.45;16.15;;;;;;;21.60;70.00;99128.22;5261424;28;20518;-80
2022/08/28 06:58:58;;;;;;;31.02;16.98;;;;;;;21.62;68.88;99101.84;5229605;28;20067;-80
2022/08/28 07:01:48;;;;;;;23.23;15.82;;;;;;;21.65;69.38;99120.31;5215512;28;20552;-80
2022/08/28 07:04:38;;;;;;;26.77;16.63;;;;;;;21.54;69.86;99117.22;5248188;28;20149;-79
2022/08/28 07:07:29;;;;;;;25.80;15.93;;;;;;;21.60;69.39;99109.34;5246807;28;20051;-80
2022/08/28 07:10:21;;;;;;;24.83;15.75;;;;;;;21.75;68.42;99110.72;5246973;28;20055;-80
2022/08/28 07:13:12;;;;;;;26.75;16.42;;;;;;;21.73;68.91;99112.00;5246181;28;20051;-80
2022/08/28 07:16:02;;;;;;;24.30;15.02;;;;;;;21.61;67.65;99128.00;5245711;28;20620;-80
2022/08/28 07:18:53;;;;;;;23.77;15.27;;;;;;;21.43;70.37;99127.84;5245312;28;20055;-81
2022/08/28 07:21:44;;;;;;;21.20;13.98;;;;;;;21.91;67.84;99140.97;5231878;28;20048;-79
2022/08/28 07:24:34;;;;;;;26.85;14.75;;;;;;;21.86;68.73;99140.81;5245619;28;20426;-79
2022/08/28 07:27:25;;;;;;;23.45;14.82;;;;;;;21.74;68.02;99127.13;5243812;28;20045;-80
2022/08/28 07:30:15;;;;;;;23.13;15.07;;;;;;;22.15;67.85;99155.63;5259640;28;20056;-80
2022/08/28 07:33:05;;;;;;;25.42;14.85;;;;;;;22.21;67.58;99146.69;5244365;28;20084;-82
2022/08/28 07:35:56;;;;;;;22.73;14.27;;;;;;;22.32;67.89;99151.44;5246244;28;20051;-80
2022/08/28 07:38:46;;;;;;;24.65;14.20;;;;;;;22.17;67.14;99129.25;5245694;28;20052;-80
2022/08/28 07:41:41;;;;;;;24.38;14.45;;;;;;;22.18;66.54;99147.94;5249906;28;20567;-80
2022/08/28 07:44:53;;;;;;;23.00;13.90;;;;;;;22.34;66.32;99146.63;5243740;28;20041;-80
2022/08/28 07:47:43;;;;;;;24.65;14.63;;;;;;;22.57;65.73;99145.25;5246843;28;20124;-80
2022/08/28 07:50:34;;;;;;;20.30;13.85;;;;;;;22.25;67.55;99145.22;5246670;28;20045;-80
2022/08/28 07:53:24;;;;;;;25.27;14.77;;;;;;;22.44;66.17;99163.19;5245098;28;20427;-80
2022/08/28 07:56:15;;;;;;;22.25;13.90;;;;;;;22.41;66.02;99154.69;5248255;28;20525;-79
2022/08/28 07:59:08;;;;;;;20.05;13.68;;;;;;;22.14;68.20;99165.59;5245586;28;20101;-80
2022/08/28 08:01:58;;;;;;;22.55;14.50;;;;;;;22.40;66.93;99144.94;5243062;28;20134;-80
2022/08/28 08:04:49;;;;;;;20.95;13.63;;;;;;;22.20;66.46;99158.53;5243120;28;20047;-80
2022/08/28 08:07:39;;;;;;;21.65;12.98;;;;;;;22.32;66.53;99169.47;5246761;28;20079;-81
2022/08/28 08:10:33;;;;;;;21.52;13.23;;;;;;;22.47;65.29;99141.13;5243416;28;20573;-81
2022/08/28 08:13:23;;;;;;;22.55;13.07;;;;;;;22.98;64.97;99159.13;5243992;28;20055;-80
2022/08/28 08:16:16;;;;;;;18.38;12.27;;;;;;;22.62;64.73;99169.75;5242878;28;20134;-80
2022/08/28 08:19:12;;;;;;;19.52;13.25;;;;;;;23.15;64.61;99167.50;5241055;28;20059;-80
2022/08/28 08:22:03;;;;;;;19.92;12.50;;;;;;;23.01;63.93;99165.13;5240776;28;20084;-80
2022/08/28 08:24:54;;;;;;;18.02;12.35;;;;;;;23.21;62.71;99188.28;5242164;28;20051;-80
2022/08/28 08:27:45;;;;;;;21.02;12.45;;;;;;;22.60;64.76;99151.03;5241364;28;20098;-80
2022/08/28 08:30:35;;;;;;;21.08;12.75;;;;;;;23.38;61.94;99191.25;5244222;28;20059;-78
2022/08/28 08:33:26;;;;;;;22.30;11.88;;;;;;;23.13;64.56;99176.88;5242476;28;20067;-79
2022/08/28 08:36:18;;;;;;;20.98;12.27;;;;;;;23.41;62.42;99196.22;5241947;28;20174;-78
2022/08/28 08:39:08;;;;;;;23.58;12.77;;;;;;;23.68;61.46;99201.41;5242103;28;20059;-79
2022/08/28 08:42:02;;;;;;;20.38;12.63;;;;;;;23.15;63.08;99188.31;5240165;28;20063;-81
2022/08/28 08:44:56;;;;;;;22.85;12.30;;;;;;;23.57;62.73;99188.56;5241969;28;20158;-80
2022/08/28 08:47:50;;;;;;;20.87;11.63;;;;;;;23.68;60.67;99191.41;5242831;28;20051;-79
2022/08/28 08:50:40;;;;;;;19.00;11.80;;;;;;;23.63;60.84;99199.31;5242839;28;20044;-80
2022/08/28 08:53:46;;;;;;;17.30;11.60;;;;;;;23.97;62.38;99205.22;5245865;28;20114;-81
2022/08/28 08:56:38;;;;;;;16.38;11.85;;;;;;;23.77;61.93;99193.78;5245407;28;20044;-80
2022/08/28 08:59:32;;;;;;;18.83;11.93;;;;;;;24.19;61.91;99205.63;5241083;28;20051;-80
2022/08/28 09:02:27;;;;;;;22.52;11.60;;;;;;;24.44;60.14;99199.31;5240563;28;20051;-80
2022/08/28 09:05:31;;;;;;;17.02;12.10;;;;;;;24.17;60.96;99215.84;5245492;28;20059;-80
2022/08/28 09:08:34;;;;;;;21.25;11.95;;;;;;;24.06;60.71;99208.47;5246569;28;20572;-79
2022/08/28 09:11:43;;;;;;;17.48;11.57;;;;;;;24.75;60.87;99204.47;5258829;28;20078;-80
2022/08/28 09:14:36;;;;;;;17.77;11.30;;;;;;;24.01;61.00;99192.91;5261029;28;20068;-80
2022/08/28 09:17:49;;;;;;;19.10;10.88;;;;;;;24.37;60.23;99211.03;5242845;28;20612;-80
2022/08/28 09:20:40;;;;;;;17.23;11.15;;;;;;;24.40;60.33;99201.59;5243666;28;20048;-80
2022/08/28 09:23:33;;;;;;;22.23;12.38;;;;;;;24.87;59.33;99203.69;5244345;28;20189;-80
2022/08/28 09:26:24;;;;;;;23.23;11.68;;;;;;;25.00;57.45;99203.47;5246414;28;20048;-81
2022/08/28 09:29:17;;;;;;;18.40;10.60;;;;;;;25.05;57.72;99212.56;5245931;28;20064;-79
2022/08/28 09:32:21;;;;;;;15.82;11.13;;;;;;;24.54;58.57;99227.50;5241727;28;20465;-80
2022/08/28 09:35:24;;;;;;;16.50;11.05;;;;;;;25.22;58.16;99226.31;5245116;28;20060;-79
2022/08/28 09:38:19;;;;;;;19.52;10.95;;;;;;;25.19;58.36;99224.06;5244407;28;20106;-79
2022/08/28 09:44:19;;;;;;;21.48;11.90;;;;;;;24.83;58.06;99212.31;5244133;28;20124;-79
2022/08/28 09:47:49;;;;;;;15.23;11.23;;;;;;;24.76;58.42;99229.72;5241746;28;20126;-79
2022/08/28 09:50:42;;;;;;;19.27;10.63;;;;;;;25.31;58.19;99224.09;5241693;28;20055;-80
2022/08/28 09:53:37;;;;;;;13.80;10.52;;;;;;;26.53;53.71;99211.63;5247531;28;20555;-79
2022/08/28 09:56:33;;;;;;;17.42;10.52;;;;;;;26.08;53.04;99210.41;5249029;28;20118;-80
2022/08/28 09:59:27;;;;;;;17.45;10.23;;;;;;;26.93;54.09;99195.22;5249196;28;20048;-79
2022/08/28 10:02:31;;;;;;;15.85;10.52;;;;;;;26.68;55.23;99211.88;5247750;28;20483;-79
2022/08/28 10:05:34;;;;;;;16.55;10.98;;;;;;;27.33;54.69;99216.06;5243830;28;20051;-81
2022/08/28 10:08:50;;;;;;;15.18;9.90;;;;;;;27.91;52.70;99217.47;5254821;28;20113;-82
2022/08/28 10:12:00;;;;;;;15.82;9.85;;;;;;;26.71;53.38;99189.66;5245310;28;20041;-82
2022/08/28 10:15:14;;;;;;;14.98;9.50;;;;;;;26.44;54.73;99213.84;5243162;28;20055;-82
2022/08/28 10:18:13;;;;;;;14.45;9.10;;;;;;;26.55;53.47;99213.00;5247546;28;20065;-81
2022/08/28 10:21:13;;;;;;;14.30;9.38;;;;;;;26.10;54.12;99211.00;5216716;28;20052;-81
2022/08/28 10:24:17;;;;;;;12.48;8.88;;;;;;;25.67;56.02;99192.38;5261632;28;20060;-81
2022/08/28 10:27:54;;;;;;;15.25;9.43;;;;;;;25.15;56.57;99213.94;5261285;28;20045;-81
2022/08/28 10:31:03;;;;;;;18.00;9.57;;;;;;;25.12;56.66;99182.66;5247736;28;20066;-81
2022/08/28 10:34:04;;;;;;;14.15;8.73;;;;;;;26.64;55.57;99208.00;5258547;28;20541;-81
2022/08/28 10:37:06;;;;;;;13.93;8.73;;;;;;;27.38;53.32;99211.53;5249012;28;20575;-81
2022/08/28 10:40:04;;;;;;;15.63;9.15;;;;;;;28.06;49.04;99193.16;5240477;28;20045;-81
2022/08/28 10:43:21;;;;;;;16.73;8.95;;;;;;;27.48;52.50;99180.03;5246153;28;20049;-82
2022/08/28 10:46:23;;;;;;;12.50;8.63;;;;;;;27.91;51.21;99201.13;5229162;28;20187;-81
2022/08/28 10:49:55;;;;;;;15.48;8.93;;;;;;;27.98;48.73;99201.78;5260823;28;20048;-81
2022/08/28 10:53:00;;;;;;;12.40;7.57;;;;;;;27.77;49.18;99197.13;5202659;28;20056;-81
2022/08/28 10:56:08;;;;;;;13.43;7.93;;;;;;;27.91;48.76;99206.56;5255824;28;20051;-82
2022/08/28 10:58:59;;;;;;;12.68;7.82;;;;;;;25.86;52.51;99177.63;5256857;28;20048;-81
2022/08/28 11:01:51;;;;;;;12.10;6.88;;;;;;;26.35;50.50;99185.38;5242687;28;20067;-81
2022/08/28 11:04:42;;;;;;;9.27;7.65;;;;;;;26.81;51.33;99186.28;5237137;28;20592;-82
2022/08/28 11:07:39;;;;;;;12.13;7.35;;;;;;;26.87;50.61;99190.75;5248929;28;20052;-81
2022/08/28 11:10:36;;;;;;;10.40;7.20;;;;;;;26.27;52.39;99204.81;5247900;28;20052;-81
2022/08/28 11:13:44;;;;;;;12.68;7.97;;;;;;;25.88;52.68;99209.97;5249178;28;20116;-80
2022/08/28 11:16:45;;;;;;;10.77;7.10;;;;;;;27.20;51.33;99211.75;5247305;28;20119;-81
2022/08/28 11:19:58;;;;;;;10.63;6.68;;;;;;;27.39;50.39;99209.63;5241101;28;20127;-80
2022/08/28 11:23:21;;;;;;;11.52;7.35;;;;;;;27.76;47.44;99209.91;5257877;28;20049;-81
2022/08/28 11:26:13;;;;;;;9.88;6.55;;;;;;;27.82;49.24;99191.75;5241061;28;20048;-81
2022/08/28 11:29:04;;;;;;;11.57;7.17;;;;;;;27.85;49.31;99204.88;5246434;28;20052;-81
2022/08/28 11:32:29;;;;;;;10.70;7.10;;;;;;;27.36;48.61;99204.66;5272802;28;20053;-82
2022/08/28 11:35:29;;;;;;;14.52;6.90;;;;;;;25.30;54.08;99217.03;5250553;28;20048;-80
2022/08/28 11:38:42;;;;;;;12.27;6.60;;;;;;;26.07;52.59;99213.38;5263223;28;20048;-80
2022/08/28 11:41:35;;;;;;;9.90;6.78;;;;;;;26.15;52.10;99183.91;5260547;28;20048;-80
2022/08/28 11:44:38;;;;;;;13.35;6.63;;;;;;;25.87;51.96;99208.31;5235940;28;20059;-81
2022/08/28 11:47:40;;;;;;;;;;;;;;;25.96;51.94;99196.00;5250807;28;20041;-81
2022/08/28 11:50:49;;;;;;;12.68;7.38;;;;;;;26.31;52.77;99138.84;5250385;28;20037;-81
2022/08/28 11:53:59;;;;;;;13.43;7.65;;;;;;;26.15;51.09;99202.94;5250801;28;20091;-80
2022/08/28 11:57:06;;;;;;;14.30;7.03;;;;;;;25.36;53.63;99175.34;5252448;28;20051;-81
2022/08/28 12:00:02;;;;;;;11.35;6.65;;;;;;;26.10;52.54;99204.75;5247510;28;20110;-81
2022/08/28 12:03:05;;;;;;;11.15;7.25;;;;;;;26.57;51.67;99204.63;5246408;28;20056;-80
2022/08/28 12:05:58;;;;;;;13.43;6.15;;;;;;;25.99;50.70;99103.16;5247395;28;20613;-80
2022/08/28 12:08:50;;;;;;;10.32;6.43;;;;;;;27.08;49.74;99203.63;5249797;28;20515;-81
2022/08/28 12:11:43;;;;;;;9.65;5.95;;;;;;;26.86;49.94;99200.81;5246664;28;20110;-81
2022/08/28 12:14:37;;;;;;;9.45;6.03;;;;;;;27.72;48.58;99194.31;5248149;28;20066;-80
2022/08/28 12:17:40;;;;;;;11.43;6.18;;;;;;;27.26;49.46;99199.88;5248422;28;20102;-80
2022/08/28 12:20:37;;;;;;;8.90;6.00;;;;;;;27.44;47.28;99190.63;5249957;28;20055;-80
2022/08/28 12:23:57;;;;;;;14.00;8.00;;;;;;;25.67;51.61;99149.75;5243079;28;20139;-81
2022/08/28 12:26:55;;;;;;;11.60;5.68;;;;;;;25.81;50.76;99111.50;5246244;28;20088;-81
2022/08/28 12:29:53;;;;;;;9.82;5.60;;;;;;;27.34;49.76;99185.03;5219256;28;20070;-81
2022/08/28 12:33:06;;;;;;;7.38;5.50;;;;;;;26.23;49.60;99133.81;5233114;28;20052;-81
2022/08/28 12:36:08;;;;;;;7.78;5.28;;;;;;;27.25;47.07;99189.22;5243117;28;20052;-80
2022/08/28 12:39:00;;;;;;;8.63;5.70;;;;;;;27.71;48.10;99190.72;5249968;28;20041;-80
2022/08/28 12:41:50;;;;;;;7.72;5.70;;;;;;;27.07;47.79;99142.09;5247965;28;20432;-81
2022/08/28 12:44:41;;;;;;;9.57;5.35;;;;;;;27.51;47.14;99133.25;5241727;28;20748;-80
2022/08/28 12:47:34;;;;;;;8.38;5.35;;;;;;;27.94;46.81;99140.66;5242862;28;20040;-80
2022/08/28 12:50:33;;;;;;;10.73;5.17;;;;;;;27.21;46.00;99125.47;5243230;28;20055;-81
2022/08/28 12:53:23;;;;;;;8.75;5.93;;;;;;;27.49;46.17;99155.31;5234255;28;20365;-80
2022/08/28 12:56:18;;;;;;;7.80;5.45;;;;;;;26.88;46.91;99176.06;5253912;28;20044;-80
2022/08/28 12:59:34;;;;;;;8.25;5.35;;;;;;;27.59;46.00;99138.28;5252516;28;20055;-81
2022/08/28 13:02:32;;;;;;;7.88;5.47;;;;;;;28.13;47.39;99165.72;5250846;28;20055;-80
2022/08/28 13:05:36;;;;;;;8.77;5.07;;;;;;;27.86;45.53;99143.84;5236373;28;20436;-80
2022/08/28 13:08:28;;;;;;;9.05;5.32;;;;;;;27.78;46.62;99128.78;5251042;28;20098;-80
2022/08/28 13:11:19;;;;;;;6.93;4.90;;;;;;;27.07;47.88;99169.31;5236528;28;20110;-80
2022/08/28 13:14:10;;;;;;;7.63;5.30;;;;;;;27.70;44.19;99164.56;5276339;28;20117;-81
2022/08/28 13:17:01;;;;;;;11.18;5.13;;;;;;;27.00;45.80;99103.34;5252772;28;20067;-80
2022/08/28 13:20:04;;;;;;;11.32;5.30;;;;;;;27.26;46.89;99101.88;5251295;28;20043;-81
2022/08/28 13:22:58;;;;;;;9.05;5.97;;;;;;;27.34;46.14;99112.31;5250967;28;20115;-80
2022/08/28 13:26:01;;;;;;;8.65;5.35;;;;;;;27.73;45.30;99119.66;5253481;28;20067;-81
2022/08/28 13:28:52;;;;;;;7.22;5.07;;;;;;;27.44;43.80;99089.03;5248299;28;20045;-81
2022/08/28 13:31:43;;;;;;;6.38;4.60;;;;;;;27.78;44.60;99117.03;5245059;28;20048;-81